Terminal Aerodrome Forecast
Issued by NWS

Home | Current Version | Previous Version | Graphics & Text | Print | Product List | Glossary On
Versions: 1 2 3 4 5 6 7 8 9 10 11 12 13 14 15 16 17 18 19 20 21
574
FTUS43 KABR 190616 AAB
TAFATY
TAF AMD
KATY 190616Z 1906/2006 15008KT P6SM OVC004
     FM190700 15008KT 1/2SM FG OVC003
     FM191100 15012KT 1/2SM FG OVC003
     FM191300 15014G21KT 3/4SM BR OVC003
     FM191500 15019G28KT P6SM OVC009
     FM192100 15024G33KT P6SM SCT070 BKN110
     FM200100 16018KT P6SM SHRA VCTS BKN050CB OVC100 WS020/19050KT
     FM200500 23014G23KT P6SM SHRA OVC060=

USA.gov is the U.S. government's official web portal to all federal, state and local government web resources and services.